createdAt,value
2023-04-16T00:02:03.293Z,45.55
2023-04-16T00:04:30.585Z,47.67
2023-04-16T00:06:57.446Z,45.60
2023-04-16T00:09:24.289Z,44.42
2023-04-16T00:11:51.156Z,41.08
2023-04-16T00:14:18.041Z,45.63
2023-04-16T00:16:44.955Z,47.53
2023-04-16T00:19:12.185Z,46.25
2023-04-16T00:21:39.272Z,48.03
2023-04-16T00:24:06.094Z,43.97
2023-04-16T00:26:32.937Z,41.30
2023-04-16T00:29:00.398Z,46.60
2023-04-16T00:31:28.903Z,43.55
2023-04-16T00:33:56.142Z,38.97
2023-04-16T00:36:27.473Z,43.97
2023-04-16T00:38:55.580Z,48.45
2023-04-16T00:41:23.171Z,43.00
2023-04-16T00:43:50.819Z,55.05
2023-04-16T00:46:23.402Z,49.42
2023-04-16T00:48:52.387Z,46.95
2023-04-16T00:51:20.722Z,56.17
2023-04-16T00:53:48.060Z,49.15
2023-04-16T00:56:15.198Z,43.63
2023-04-16T00:58:42.111Z,43.75
2023-04-16T01:01:08.983Z,43.78
2023-04-16T01:03:44.754Z,42.33
2023-04-16T01:06:12.323Z,56.55
2023-04-16T01:08:39.675Z,46.22
2023-04-16T01:11:06.622Z,47.25
2023-04-16T01:13:33.941Z,42.78
2023-04-16T01:16:01.504Z,46.47
2023-04-16T01:18:28.389Z,43.35
2023-04-16T01:20:55.423Z,42.45
2023-04-16T01:23:22.704Z,40.65
2023-04-16T01:25:49.534Z,43.88
2023-04-16T01:28:16.579Z,48.90
2023-04-16T01:30:43.450Z,44.95
2023-04-16T01:33:14.657Z,49.10
2023-04-16T01:35:42.208Z,48.83
2023-04-16T01:38:09.883Z,51.58
2023-04-16T01:40:37.859Z,47.28
2023-04-16T01:43:05.119Z,45.60
2023-04-16T01:45:34.644Z,42.42
2023-04-16T01:48:01.834Z,44.25
2023-04-16T01:50:30.237Z,48.20
2023-04-16T01:52:57.165Z,47.80
2023-04-16T01:55:24.078Z,49.90
2023-04-16T01:57:51.277Z,49.63
2023-04-16T02:00:18.156Z,48.15
2023-04-16T02:02:45.516Z,49.40
2023-04-16T02:05:12.437Z,46.65
2023-04-16T02:07:39.302Z,52.95
2023-04-16T02:10:07.579Z,49.30
2023-04-16T02:12:34.390Z,45.50
2023-04-16T02:15:01.319Z,48.38
2023-04-16T02:17:28.292Z,42.95
2023-04-16T02:19:55.232Z,46.83
2023-04-16T02:22:22.211Z,49.10
2023-04-16T02:24:50.699Z,45.95
2023-04-16T02:27:17.539Z,46.20
2023-04-16T02:29:44.465Z,50.22
2023-04-16T02:32:11.435Z,49.50
2023-04-16T02:34:40.325Z,50.05
2023-04-16T02:37:07.171Z,50.35
2023-04-16T02:39:34.054Z,52.35
2023-04-16T02:42:02.651Z,57.15
2023-04-16T02:44:29.658Z,48.53
2023-04-16T02:46:56.481Z,56.97
2023-04-16T02:49:23.373Z,61.20
2023-04-16T02:51:50.284Z,55.20
2023-04-16T02:54:17.101Z,45.95
2023-04-16T02:56:43.931Z,56.50
2023-04-16T02:59:10.862Z,52.40
2023-04-16T03:01:37.915Z,53.78
2023-04-16T03:04:05.066Z,54.45
2023-04-16T03:06:32.134Z,55.60
2023-04-16T03:08:59.063Z,51.53
2023-04-16T03:11:25.883Z,56.95
2023-04-16T03:13:52.813Z,47.90
2023-04-16T03:16:19.875Z,49.50
2023-04-16T03:18:46.730Z,52.08
2023-04-16T03:21:13.559Z,52.95
2023-04-16T03:23:40.449Z,45.80
2023-04-16T03:26:07.308Z,51.67
2023-04-16T03:28:34.258Z,51.63
2023-04-16T03:31:01.314Z,49.28
2023-04-16T03:33:28.192Z,48.72
2023-04-16T03:35:58.790Z,50.22
2023-04-16T03:38:26.731Z,54.70
2023-04-16T03:40:53.706Z,48.08
2023-04-16T03:43:20.731Z,58.47
2023-04-16T03:45:49.097Z,53.28
2023-04-16T03:48:16.049Z,50.35
2023-04-16T03:50:47.593Z,49.38
2023-04-16T03:53:14.847Z,50.63
2023-04-16T03:55:44.861Z,47.90
2023-04-16T03:58:11.821Z,45.53
2023-04-16T04:00:42.338Z,48.40
2023-04-16T04:03:10.666Z,53.25
2023-04-16T04:05:39.213Z,51.78
2023-04-16T04:08:06.388Z,45.65
2023-04-16T04:10:36.690Z,45.10
2023-04-16T04:13:05.230Z,42.55
2023-04-16T04:15:32.505Z,46.25
2023-04-16T04:17:59.686Z,39.88
2023-04-16T04:20:26.629Z,40.13
2023-04-16T04:22:53.507Z,38.80
2023-04-16T04:25:20.404Z,43.83
2023-04-16T04:27:47.346Z,39.60
2023-04-16T04:30:15.338Z,41.03
2023-04-16T04:32:42.152Z,42.58
2023-04-16T04:35:09.442Z,42.78
2023-04-16T04:37:36.273Z,41.50
2023-04-16T04:40:03.093Z,36.78
2023-04-16T04:42:29.972Z,39.05
2023-04-16T04:44:56.915Z,40.35
2023-04-16T04:47:23.768Z,41.28
2023-04-16T04:49:50.896Z,37.95
2023-04-16T04:52:17.782Z,37.42
2023-04-16T04:54:44.582Z,38.08
2023-04-16T04:57:11.520Z,42.13
2023-04-16T04:59:38.383Z,36.90
2023-04-16T05:02:05.717Z,39.08
2023-04-16T05:04:32.726Z,40.28
2023-04-16T05:06:59.727Z,38.47
2023-04-16T05:09:26.649Z,37.05
2023-04-16T05:11:53.729Z,42.65
2023-04-16T05:14:20.804Z,37.65
2023-04-16T05:16:47.661Z,36.35
2023-04-16T05:19:14.747Z,34.15
2023-04-16T05:21:41.542Z,36.03
2023-04-16T05:24:08.471Z,35.00
2023-04-16T05:26:35.532Z,33.60
2023-04-16T05:29:02.406Z,36.53
2023-04-16T05:31:30.709Z,31.98
2023-04-16T05:33:57.610Z,33.88
2023-04-16T05:36:26.570Z,33.20
2023-04-16T05:38:53.708Z,33.08
2023-04-16T05:41:21.219Z,42.92
2023-04-16T05:43:50.332Z,35.60
2023-04-16T05:46:21.362Z,36.88
2023-04-16T05:48:48.206Z,30.73
2023-04-16T05:51:15.045Z,35.15
2023-04-16T05:53:42.117Z,35.08
2023-04-16T05:56:09.118Z,33.08
2023-04-16T05:58:37.023Z,31.92
2023-04-16T06:01:03.856Z,29.23
2023-04-16T06:03:31.044Z,29.52
2023-04-16T06:05:58.217Z,29.40
2023-04-16T06:08:25.221Z,32.40
2023-04-16T06:10:52.189Z,29.42
2023-04-16T06:13:19.141Z,25.48
2023-04-16T06:15:46.075Z,29.30
2023-04-16T06:18:13.020Z,27.23
2023-04-16T06:20:39.982Z,28.83
2023-04-16T06:23:06.799Z,29.38
2023-04-16T06:25:33.653Z,28.48
2023-04-16T06:28:00.678Z,31.95
2023-04-16T06:30:27.549Z,27.65
2023-04-16T06:32:54.517Z,31.35
2023-04-16T06:35:21.339Z,25.65
2023-04-16T06:37:48.308Z,28.58
2023-04-16T06:40:15.615Z,26.27
2023-04-16T06:42:45.265Z,33.50
2023-04-16T06:45:12.841Z,32.42
2023-04-16T06:47:39.683Z,27.35
2023-04-16T06:50:07.403Z,26.65
2023-04-16T06:52:34.437Z,25.40
2023-04-16T06:55:02.702Z,24.77
2023-04-16T06:57:29.528Z,25.75
2023-04-16T06:59:57.980Z,23.58
2023-04-16T07:02:26.436Z,28.83
2023-04-16T07:04:53.631Z,30.42
2023-04-16T07:07:20.589Z,22.73
2023-04-16T07:09:47.389Z,24.58
2023-04-16T07:12:14.312Z,29.05
2023-04-16T07:14:42.483Z,27.02
2023-04-16T07:17:09.328Z,26.70
2023-04-16T07:19:37.114Z,23.48
2023-04-16T07:22:04.567Z,26.85
2023-04-16T07:24:31.373Z,23.08
2023-04-16T07:26:58.402Z,23.35
2023-04-16T07:29:25.214Z,25.67
2023-04-16T07:31:52.169Z,26.63
2023-04-16T07:34:19.017Z,23.48
2023-04-16T07:36:46.041Z,28.98
2023-04-16T07:39:13.253Z,29.30
2023-04-16T07:41:41.162Z,22.80
2023-04-16T07:44:09.491Z,26.48
2023-04-16T07:46:46.119Z,27.23
2023-04-16T07:49:14.298Z,28.33
2023-04-16T07:51:41.229Z,22.13
2023-04-16T07:54:08.203Z,26.52
2023-04-16T07:56:35.932Z,25.00
2023-04-16T07:59:11.064Z,25.92
2023-04-16T08:01:41.683Z,24.15
2023-04-16T08:04:08.838Z,26.02
2023-04-16T08:06:35.675Z,24.58
2023-04-16T08:09:02.476Z,25.02
2023-04-16T08:11:29.426Z,24.60
2023-04-16T08:13:56.319Z,25.30
2023-04-16T08:16:23.213Z,24.00
2023-04-16T08:18:50.040Z,25.58
2023-04-16T08:21:16.873Z,24.63
2023-04-16T08:23:43.783Z,27.65
2023-04-16T08:26:11.592Z,25.80
2023-04-16T08:28:40.938Z,21.67
2023-04-16T08:31:07.849Z,25.08
2023-04-16T08:33:34.709Z,26.27
2023-04-16T08:36:01.714Z,26.27
2023-04-16T08:38:28.572Z,24.65
2023-04-16T08:40:57.599Z,29.75
2023-04-16T08:43:25.119Z,24.88
2023-04-16T08:45:56.563Z,25.17
2023-04-16T08:48:24.390Z,26.92
2023-04-16T08:50:54.993Z,24.58
2023-04-16T08:53:38.902Z,24.83
2023-04-16T08:56:06.817Z,33.85
2023-04-16T08:58:35.662Z,24.52
2023-04-16T09:01:06.255Z,25.58
2023-04-16T09:03:36.106Z,30.52
2023-04-16T09:06:04.957Z,28.05
2023-04-16T09:08:32.569Z,24.90
2023-04-16T09:11:00.179Z,26.55
2023-04-16T09:13:27.230Z,28.13
2023-04-16T09:15:54.570Z,33.92
2023-04-16T09:18:21.555Z,30.13
2023-04-16T09:20:49.737Z,26.40
2023-04-16T09:23:16.686Z,28.70
2023-04-16T09:25:43.882Z,31.98
2023-04-16T09:28:11.067Z,27.27
2023-04-16T09:30:38.331Z,30.50
2023-04-16T09:33:24.402Z,29.75
2023-04-16T09:35:54.518Z,23.70
2023-04-16T09:38:21.887Z,26.42
2023-04-16T09:41:05.434Z,27.80
2023-04-16T09:43:32.248Z,26.70
2023-04-16T09:45:59.094Z,26.13
2023-04-16T09:48:33.435Z,27.83
2023-04-16T09:51:01.294Z,29.23
2023-04-16T09:53:30.216Z,26.30
2023-04-16T09:56:02.184Z,25.90
2023-04-16T09:58:29.272Z,29.27
2023-04-16T10:01:09.581Z,26.00
2023-04-16T10:03:38.844Z,25.90
2023-04-16T10:06:20.699Z,25.17
2023-04-16T10:08:51.396Z,25.35
2023-04-16T10:11:19.297Z,26.17
2023-04-16T10:13:46.698Z,27.38
2023-04-16T10:16:13.574Z,27.25
2023-04-16T10:18:42.296Z,29.92
2023-04-16T10:21:13.095Z,28.73
2023-04-16T10:23:40.952Z,28.40
2023-04-16T10:26:08.059Z,29.63
2023-04-16T10:28:35.846Z,28.75
2023-04-16T10:31:04.849Z,28.60
2023-04-16T10:33:34.962Z,32.67
2023-04-16T10:36:13.817Z,32.63
2023-04-16T10:38:52.572Z,28.45
2023-04-16T10:41:23.165Z,28.17
2023-04-16T10:43:51.084Z,27.33
2023-04-16T10:46:18.876Z,26.02
2023-04-16T10:48:50.161Z,27.55
2023-04-16T10:51:34.245Z,32.15
2023-04-16T10:54:14.452Z,27.90
2023-04-16T10:56:41.317Z,25.83
2023-04-16T10:59:11.010Z,28.13
2023-04-16T11:01:42.662Z,26.05
2023-04-16T11:04:22.178Z,24.27
2023-04-16T11:07:06.341Z,30.67
2023-04-16T11:09:51.570Z,27.77
2023-04-16T11:12:22.645Z,31.77
2023-04-16T11:14:51.688Z,25.13
2023-04-16T11:17:19.428Z,31.33
2023-04-16T11:19:47.102Z,24.55
2023-04-16T11:22:17.192Z,23.98
2023-04-16T11:24:47.764Z,24.98
2023-04-16T11:27:16.129Z,21.48
2023-04-16T11:29:45.042Z,23.35
2023-04-16T11:32:21.998Z,26.33
2023-04-16T11:34:48.876Z,22.25
2023-04-16T11:37:15.930Z,24.10
2023-04-16T11:39:52.894Z,22.38
2023-04-16T11:42:22.769Z,23.08
2023-04-16T11:44:57.189Z,19.85
2023-04-16T11:47:24.968Z,28.35
2023-04-16T11:49:51.912Z,20.20
2023-04-16T11:52:27.465Z,21.63
2023-04-16T11:54:54.613Z,25.23
2023-04-16T11:57:29.450Z,22.92
2023-04-16T12:00:02.450Z,29.70
2023-04-16T12:02:45.687Z,26.38
2023-04-16T12:05:30.825Z,25.20
2023-04-16T12:08:01.758Z,23.65
2023-04-16T12:10:29.358Z,31.02
2023-04-16T12:13:16.620Z,26.88
2023-04-16T12:15:47.820Z,22.77
2023-04-16T12:18:18.739Z,20.50
2023-04-16T12:20:46.235Z,22.05
2023-04-16T12:23:27.100Z,25.98
2023-04-16T12:25:54.834Z,20.42
2023-04-16T12:28:35.515Z,24.48
2023-04-16T12:31:03.453Z,23.80
2023-04-16T12:33:31.087Z,21.35
2023-04-16T12:35:58.274Z,22.30
2023-04-16T12:38:26.316Z,23.48
2023-04-16T12:40:56.815Z,21.17
2023-04-16T12:43:24.339Z,22.48
2023-04-16T12:45:51.476Z,23.17
2023-04-16T12:48:18.260Z,18.02
2023-04-16T12:50:45.170Z,16.63
2023-04-16T12:53:12.131Z,18.00
2023-04-16T12:55:39.235Z,22.23
2023-04-16T12:58:06.678Z,21.10
2023-04-16T13:00:33.490Z,19.95
2023-04-16T13:03:00.521Z,24.60
2023-04-16T13:05:27.485Z,20.05
2023-04-16T13:07:54.577Z,20.98
2023-04-16T13:10:22.189Z,16.92
2023-04-16T13:12:49.251Z,21.70
2023-04-16T13:15:16.197Z,23.73
2023-04-16T13:17:43.183Z,17.33
2023-04-16T13:20:10.614Z,17.77
2023-04-16T13:22:37.751Z,19.70
2023-04-16T13:25:05.161Z,18.55
2023-04-16T13:27:32.656Z,23.25
2023-04-16T13:29:59.527Z,17.88
2023-04-16T13:32:26.633Z,18.63
2023-04-16T13:34:53.507Z,17.90
2023-04-16T13:37:20.393Z,15.57
2023-04-16T13:39:47.389Z,16.10
2023-04-16T13:42:14.215Z,15.05
2023-04-16T13:44:41.119Z,18.73
2023-04-16T13:47:08.137Z,18.98
2023-04-16T13:49:36.171Z,24.10
2023-04-16T13:52:03.534Z,15.98
2023-04-16T13:54:30.395Z,17.00
2023-04-16T13:56:57.276Z,19.48
2023-04-16T13:59:24.097Z,16.98
2023-04-16T14:01:51.646Z,19.33
2023-04-16T14:04:18.767Z,18.90
2023-04-16T14:06:45.707Z,20.95
2023-04-16T14:09:12.773Z,19.42
2023-04-16T14:11:39.769Z,17.17
2023-04-16T14:14:06.741Z,21.65
2023-04-16T14:16:34.356Z,17.58
2023-04-16T14:19:01.240Z,18.17
2023-04-16T14:21:28.097Z,15.82
2023-04-16T14:23:54.882Z,13.55
2023-04-16T14:26:21.785Z,17.17
2023-04-16T14:28:48.633Z,16.15
2023-04-16T14:31:17.215Z,14.25
2023-04-16T14:33:44.235Z,14.35
2023-04-16T14:36:11.591Z,14.85
2023-04-16T14:38:38.547Z,11.88
2023-04-16T14:41:05.461Z,12.40
2023-04-16T14:43:32.305Z,11.73
2023-04-16T14:46:00.014Z,14.63
2023-04-16T14:48:26.933Z,10.15
2023-04-16T14:50:54.057Z,11.02
2023-04-16T14:53:20.942Z,8.50
2023-04-16T14:55:48.089Z,10.32
2023-04-16T14:58:14.899Z,7.05
2023-04-16T15:00:42.088Z,9.90
2023-04-16T15:03:09.182Z,11.65
2023-04-16T15:05:36.207Z,11.77
2023-04-16T15:08:03.954Z,14.02
2023-04-16T15:10:31.409Z,8.95
2023-04-16T15:12:58.429Z,10.73
2023-04-16T15:15:26.716Z,8.43
2023-04-16T15:18:18.714Z,10.98
2023-04-16T15:20:46.124Z,11.10
2023-04-16T15:23:16.114Z,10.07
2023-04-16T15:25:46.980Z,12.15
2023-04-16T15:28:22.793Z,7.43
2023-04-16T15:30:52.078Z,8.65
2023-04-16T15:33:21.418Z,7.97
2023-04-16T15:35:48.231Z,6.32
2023-04-16T15:38:15.037Z,6.53
2023-04-16T15:40:41.917Z,8.15
2023-04-16T15:43:08.761Z,9.45
2023-04-16T15:45:35.849Z,6.63
2023-04-16T15:48:05.401Z,7.32
2023-04-16T15:50:32.755Z,10.95
2023-04-16T15:52:59.619Z,5.88
2023-04-16T15:55:26.608Z,9.68
2023-04-16T15:57:53.430Z,7.03
2023-04-16T16:00:21.365Z,7.03
2023-04-16T16:02:49.476Z,7.35
2023-04-16T16:05:17.091Z,7.55
2023-04-16T16:07:44.044Z,8.07
2023-04-16T16:10:14.434Z,9.23
2023-04-16T16:12:41.770Z,9.73
2023-04-16T16:15:11.170Z,9.38
2023-04-16T16:17:38.860Z,12.32
2023-04-16T16:20:09.733Z,8.63
2023-04-16T16:22:38.600Z,8.70
2023-04-16T16:25:07.350Z,11.43
2023-04-16T16:27:36.432Z,11.73
2023-04-16T16:30:06.657Z,12.27
2023-04-16T16:32:33.616Z,10.18
2023-04-16T16:35:22.433Z,12.20
2023-04-16T16:37:58.826Z,10.13
2023-04-16T16:40:38.722Z,15.27
2023-04-16T16:43:08.039Z,11.65
2023-04-16T16:45:47.517Z,14.65
2023-04-16T16:48:14.396Z,13.50
2023-04-16T16:50:41.255Z,10.88
2023-04-16T16:53:08.299Z,14.07
2023-04-16T16:55:35.820Z,10.65
2023-04-16T16:58:03.231Z,9.40
2023-04-16T17:00:30.052Z,8.93
2023-04-16T17:02:57.081Z,11.68
2023-04-16T17:05:23.930Z,9.73
2023-04-16T17:07:52.339Z,12.63
2023-04-16T17:10:21.807Z,9.98
2023-04-16T17:12:49.775Z,10.32
2023-04-16T17:19:03.094Z,11.85
2023-04-16T17:22:16.733Z,11.23
2023-04-16T17:25:45.112Z,10.30
2023-04-16T17:29:21.154Z,14.25
2023-04-16T17:32:48.600Z,12.35
2023-04-16T17:58:23.654Z,12.63
2023-04-16T18:00:50.912Z,12.13
2023-04-16T18:03:38.972Z,15.77
2023-04-16T18:09:08.524Z,12.00
2023-04-16T18:11:37.240Z,10.85
2023-04-16T18:14:06.569Z,16.10
2023-04-16T18:16:38.233Z,12.82
2023-04-16T18:22:07.260Z,15.32
2023-04-16T18:24:37.985Z,12.77
2023-04-16T18:27:10.206Z,11.77
2023-04-16T18:30:19.544Z,13.23
2023-04-16T18:33:25.135Z,15.27
2023-04-16T18:35:51.973Z,16.13
2023-04-16T18:38:20.172Z,13.00
2023-04-16T18:40:47.533Z,12.30
2023-04-16T18:43:14.375Z,12.38
2023-04-16T18:45:41.691Z,13.48
2023-04-16T18:48:08.539Z,14.40
2023-04-16T18:53:45.857Z,13.73
2023-04-16T18:59:49.106Z,22.17
2023-04-16T19:05:45.080Z,13.82
2023-04-16T19:11:38.816Z,18.90
2023-04-16T19:20:21.855Z,18.23
2023-04-16T19:22:56.414Z,15.38
2023-04-16T19:31:53.988Z,14.93
2023-04-16T19:37:36.679Z,15.02
2023-04-16T19:40:22.744Z,18.90
2023-04-16T19:42:57.807Z,13.43
2023-04-16T19:45:39.168Z,14.02
2023-04-16T19:48:08.135Z,16.30
2023-04-16T19:50:38.938Z,17.10
2023-04-16T19:53:06.420Z,18.83
2023-04-16T19:55:42.132Z,16.23
2023-04-16T19:58:11.281Z,16.85
2023-04-16T20:00:41.001Z,16.40
2023-04-16T20:03:08.167Z,16.70
2023-04-16T20:05:35.212Z,16.30
2023-04-16T20:08:02.804Z,17.40
2023-04-16T20:10:31.386Z,15.55
2023-04-16T20:12:58.547Z,16.55
2023-04-16T20:15:25.397Z,18.63
2023-04-16T20:17:52.516Z,16.83
2023-04-16T20:20:19.407Z,15.98
2023-04-16T20:22:46.557Z,16.33
2023-04-16T20:25:14.500Z,16.70
2023-04-16T20:27:41.400Z,17.17
2023-04-16T20:30:08.922Z,17.55
2023-04-16T20:32:36.127Z,17.05
2023-04-16T20:35:04.412Z,16.35
2023-04-16T20:37:31.377Z,17.67
2023-04-16T20:39:58.189Z,16.23
2023-04-16T20:42:26.522Z,16.13
2023-04-16T20:44:56.601Z,15.90
2023-04-16T20:47:23.926Z,16.40
2023-04-16T20:49:52.914Z,15.40
2023-04-16T20:52:20.518Z,21.05
2023-04-16T20:54:47.999Z,18.50
2023-04-16T20:57:14.938Z,19.27
2023-04-16T20:59:41.783Z,20.45
2023-04-16T21:02:08.711Z,15.63
2023-04-16T21:04:36.023Z,21.55
2023-04-16T21:07:04.369Z,25.80
2023-04-16T21:09:31.756Z,19.27
2023-04-16T21:11:58.664Z,20.15
2023-04-16T21:14:25.673Z,15.90
2023-04-16T21:16:52.572Z,18.25
2023-04-16T21:19:20.024Z,17.80
2023-04-16T21:21:46.982Z,16.40
2023-04-16T21:24:14.003Z,14.85
2023-04-16T21:26:41.038Z,18.02
2023-04-16T21:29:08.901Z,27.20
2023-04-16T21:31:35.792Z,19.42
2023-04-16T21:34:02.801Z,17.60
2023-04-16T21:36:32.051Z,18.35
2023-04-16T21:38:58.964Z,22.73
2023-04-16T21:41:26.494Z,17.45
2023-04-16T21:43:53.407Z,19.10
2023-04-16T21:46:21.479Z,15.85
2023-04-16T21:48:49.715Z,13.95
2023-04-16T21:51:16.627Z,15.30
2023-04-16T21:53:43.489Z,29.17
2023-04-16T21:56:10.447Z,19.50
2023-04-16T21:58:37.316Z,13.88
2023-04-16T22:01:04.200Z,19.30
2023-04-16T22:03:31.313Z,17.75
2023-04-16T22:06:01.133Z,17.88
2023-04-16T22:08:29.251Z,18.70
2023-04-16T22:11:01.490Z,21.27
2023-04-16T22:13:36.681Z,20.25
2023-04-16T22:16:03.975Z,20.88
2023-04-16T22:18:34.116Z,15.85
2023-04-16T22:21:02.051Z,16.80
2023-04-16T22:23:28.870Z,18.42
2023-04-16T22:25:56.659Z,17.42
2023-04-16T22:28:23.894Z,19.70
2023-04-16T22:30:51.270Z,14.55
2023-04-16T22:33:18.331Z,18.48
2023-04-16T22:35:45.641Z,16.90
2023-04-16T22:38:12.544Z,18.30
2023-04-16T22:40:39.425Z,19.13
2023-04-16T22:43:06.282Z,17.60
2023-04-16T22:45:33.125Z,17.83
2023-04-16T22:47:59.987Z,19.58
2023-04-16T22:50:27.285Z,19.00
2023-04-16T22:52:54.242Z,15.93
2023-04-16T22:55:21.247Z,19.75
2023-04-16T22:57:48.059Z,22.00
2023-04-16T23:00:18.252Z,16.85
2023-04-16T23:02:45.631Z,21.35
2023-04-16T23:05:12.574Z,21.05
2023-04-16T23:07:39.979Z,18.48
2023-04-16T23:10:08.644Z,20.58
2023-04-16T23:12:37.534Z,18.48
2023-04-16T23:15:06.772Z,18.08
2023-04-16T23:17:35.103Z,17.05
2023-04-16T23:20:02.427Z,17.02
2023-04-16T23:22:29.398Z,20.13
2023-04-16T23:24:56.390Z,18.27
2023-04-16T23:27:23.252Z,18.33
2023-04-16T23:29:50.114Z,19.65
2023-04-16T23:32:16.999Z,19.42
2023-04-16T23:34:43.826Z,21.13
2023-04-16T23:37:10.715Z,20.48
2023-04-16T23:39:37.691Z,20.83
2023-04-16T23:42:04.541Z,17.25
2023-04-16T23:44:31.649Z,27.17
2023-04-16T23:46:58.599Z,16.67
2023-04-16T23:49:25.640Z,19.05
2023-04-16T23:51:52.486Z,20.38
2023-04-16T23:54:19.410Z,21.25
2023-04-16T23:56:46.256Z,18.13
2023-04-16T23:59:13.329Z,17.35
